Main page
METAR-TAF:

METAR-TAF

Airports :

Hercílio Luz International Airport

Florianópolis, Santa Catarina, Brazil

latitude: 27-40S, longitude: 048-33W, elevation: 5 m

Current weather observation

The report was made 59 minutes ago, at 17:00 UTC
Wind 9 kt from the West/Northwest
Temperature 32°C
Humidity 43%
Pressure 1012 hPa
Visibility 10 km or more
no clouds below 1500 m and no cumulonimbus

METAR: SBFL 151700Z 30009KT CAVOK 32/18 Q1012

Time: 14:59 (17:59 UTC)

Forecast

The report was made 2 hours and 59 minutes ago, at 15:00 UTC
Forecast valid from 15 at 18 UTC to 16 at 18 UTC
Wind 12 kt from the North
Visibility 10 km or more
no clouds below 1500 m and no cumulonimbus

TAF: SBFL 151500Z 1518/1618 35012KT CAVOK TX29/1518Z TN20/1609Z RMK PBH

Weather observations and forecasts of more than 4000 airports (METAR and TAF reports).

The available stations are represented by yellow and red dots on the map.

Hover mouse over dot to see the name of the station.

Then click to see weather observations and forecasts.

To change the map : click on the green buttons with a black cross to zoom in, on the green button with a dash to zoom out, or on the green arrows for adjacent maps.


METAR-TAF: